createdAt,value
2022-10-13T00:11:44.909Z,64.79
2022-10-13T00:26:46.696Z,65.38
2022-10-13T00:41:48.490Z,66.87
2022-10-13T00:56:51.674Z,66.00
2022-10-13T01:12:20.864Z,65.54
2022-10-13T01:27:38.272Z,65.01
2022-10-13T01:42:56.967Z,65.53
2022-10-13T01:57:58.750Z,65.28
2022-10-13T02:13:03.875Z,65.18
2022-10-13T02:28:06.754Z,66.30
2022-10-13T02:43:08.636Z,65.66
2022-10-13T02:58:10.393Z,65.36
2022-10-13T03:13:12.252Z,66.11
2022-10-13T03:28:14.235Z,66.51
2022-10-13T03:43:16.042Z,66.53
2022-10-13T03:58:18.622Z,67.94
2022-10-13T04:13:20.516Z,65.96
2022-10-13T04:28:22.352Z,66.24
2022-10-13T04:43:24.263Z,65.69
2022-10-13T04:58:26.087Z,63.67
2022-10-13T05:13:29.915Z,61.44
2022-10-13T05:28:31.941Z,57.88
2022-10-13T05:43:34.617Z,52.58
2022-10-13T05:58:40.983Z,48.45
2022-10-13T06:13:42.864Z,46.17
2022-10-13T06:28:49.738Z,44.20
2022-10-13T06:43:52.407Z,42.92
2022-10-13T06:58:54.196Z,40.07
2022-10-13T07:13:56.214Z,38.17
2022-10-13T07:28:58.237Z,36.78
2022-10-13T07:44:00.165Z,35.71
2022-10-13T07:59:02.574Z,33.93
2022-10-13T08:14:05.171Z,32.82
2022-10-13T08:29:21.474Z,31.28
2022-10-13T09:00:01.149Z,31.72
2022-10-13T09:15:10.307Z,29.73
2022-10-13T09:30:28.431Z,32.89
2022-10-13T09:45:32.310Z,29.43
2022-10-13T10:00:34.992Z,33.57
2022-10-13T10:16:10.961Z,32.69
2022-10-13T10:31:54.735Z,32.53
2022-10-13T10:47:03.048Z,32.75
2022-10-13T11:02:07.898Z,32.67
2022-10-13T11:17:17.122Z,31.77
2022-10-13T11:32:27.781Z,31.03
2022-10-13T11:48:00.957Z,33.58
2022-10-13T12:03:02.840Z,32.49
2022-10-13T12:18:34.567Z,35.05
2022-10-13T12:33:36.423Z,36.22
2022-10-13T12:48:40.912Z,37.76
2022-10-13T13:03:43.913Z,37.97
2022-10-13T13:18:50.718Z,39.08
2022-10-13T13:33:53.101Z,40.15
2022-10-13T13:48:54.905Z,40.99
2022-10-13T14:03:56.712Z,40.88
2022-10-13T14:18:58.869Z,41.94
2022-10-13T14:34:00.652Z,41.52
2022-10-13T14:49:02.472Z,42.33
2022-10-13T15:04:05.025Z,43.68
2022-10-13T15:19:06.856Z,44.76
2022-10-13T15:34:08.647Z,45.53
2022-10-13T15:49:10.404Z,46.16
2022-10-13T16:04:12.135Z,47.04
2022-10-13T16:19:14.349Z,48.44
2022-10-13T16:34:16.364Z,49.50
2022-10-13T16:49:18.394Z,49.71
2022-10-13T17:04:22.290Z,49.93
2022-10-13T17:19:24.275Z,50.71
2022-10-13T17:34:26.056Z,51.74
2022-10-13T17:49:28.001Z,50.92
2022-10-13T18:04:30.048Z,50.93
2022-10-13T18:19:35.388Z,50.64
2022-10-13T18:34:39.628Z,51.04
2022-10-13T18:49:41.407Z,51.26
2022-10-13T19:04:43.196Z,51.53
2022-10-13T19:19:46.467Z,51.40
2022-10-13T19:34:48.284Z,51.70
2022-10-13T19:49:50.022Z,52.84
2022-10-13T20:04:52.215Z,53.40
2022-10-13T20:19:54.042Z,53.79
2022-10-13T20:34:55.775Z,54.42
2022-10-13T20:49:57.631Z,53.80
2022-10-13T21:04:59.452Z,54.84
2022-10-13T21:20:01.402Z,55.12
2022-10-13T21:35:03.386Z,55.74
2022-10-13T21:50:05.746Z,56.22
2022-10-13T22:05:07.888Z,55.93
2022-10-13T22:20:09.888Z,56.30
2022-10-13T22:35:11.676Z,55.93
2022-10-13T22:50:13.504Z,57.04
2022-10-13T23:05:15.355Z,56.87
2022-10-13T23:20:17.289Z,58.27
2022-10-13T23:35:19.143Z,59.37
2022-10-13T23:50:20.923Z,60.49
